sensor_id;sensor_type;location;lat;lon;timestamp;pressure;altitude;pressure_sealevel;temperature;humidity
65606;BME280;52276;48.906;2.384;2023-09-30T00:00:44;88103.997802734;;;19.5;43.8
65606;BME280;52276;48.906;2.384;2023-09-30T00:01:44;88103.997802734;;;19.5;43.7
65606;BME280;52276;48.906;2.384;2023-09-30T00:02:44;88103.997802734;;;19.5;43.7
65606;BME280;52276;48.906;2.384;2023-09-30T00:03:44;88103.997802734;;;19.5;43.7
65606;BME280;52276;48.906;2.384;2023-09-30T00:04:44;88103.997802734;;;19.5;43.8
65606;BME280;52276;48.906;2.384;2023-09-30T00:05:44;88103.997802734;;;19.5;43.7
65606;BME280;52276;48.906;2.384;2023-09-30T00:06:44;88103.997802734;;;19.5;43.8
65606;BME280;52276;48.906;2.384;2023-09-30T00:07:44;88103.997802734;;;19.5;43.8
65606;BME280;52276;48.906;2.384;2023-09-30T00:08:44;88103.997802734;;;19.5;43.9
65606;BME280;52276;48.906;2.384;2023-09-30T00:09:44;88103.997802734;;;19.5;44
65606;BME280;52276;48.906;2.384;2023-09-30T00:10:44;88103.997802734;;;19.5;44
65606;BME280;52276;48.906;2.384;2023-09-30T00:11:44;88103.997802734;;;19.5;44
65606;BME280;52276;48.906;2.384;2023-09-30T00:12:44;88103.997802734;;;19.5;44.1
65606;BME280;52276;48.906;2.384;2023-09-30T00:13:44;88103.997802734;;;19.5;43.2
65606;BME280;52276;48.906;2.384;2023-09-30T00:14:44;88103.997802734;;;19.5;44.2
65606;BME280;52276;48.906;2.384;2023-09-30T00:15:44;88103.997802734;;;19.5;44.2
65606;BME280;52276;48.906;2.384;2023-09-30T00:16:44;88103.997802734;;;19.5;44.2
65606;BME280;52276;48.906;2.384;2023-09-30T00:17:44;88103.997802734;;;19.5;44.2
65606;BME280;52276;48.906;2.384;2023-09-30T00:18:44;88103.997802734;;;19.5;44.2
65606;BME280;52276;48.906;2.384;2023-09-30T00:19:44;88103.997802734;;;19.5;44.2
65606;BME280;52276;48.906;2.384;2023-09-30T00:20:44;88103.997802734;;;19.5;44.3
65606;BME280;52276;48.906;2.384;2023-09-30T00:21:44;88103.997802734;;;19.5;44.3
65606;BME280;52276;48.906;2.384;2023-09-30T00:22:44;88103.997802734;;;19.4;44.3
65606;BME280;52276;48.906;2.384;2023-09-30T00:23:44;88103.997802734;;;19.5;44.3
65606;BME280;52276;48.906;2.384;2023-09-30T00:24:44;88103.997802734;;;19.5;44.3
65606;BME280;52276;48.906;2.384;2023-09-30T00:25:44;88103.997802734;;;19.4;44.3
65606;BME280;52276;48.906;2.384;2023-09-30T00:26:44;88103.997802734;;;19.4;44.3
65606;BME280;52276;48.906;2.384;2023-09-30T00:27:44;88103.997802734;;;19.4;44.3
65606;BME280;52276;48.906;2.384;2023-09-30T00:28:44;88103.997802734;;;19.4;44.3
65606;BME280;52276;48.906;2.384;2023-09-30T00:29:44;88103.997802734;;;19.4;44.3
65606;BME280;52276;48.906;2.384;2023-09-30T00:30:44;88103.997802734;;;19.4;44.3
65606;BME280;52276;48.906;2.384;2023-09-30T00:31:44;88103.997802734;;;19.4;44.3
65606;BME280;52276;48.906;2.384;2023-09-30T00:32:44;88103.997802734;;;19.4;44.4
65606;BME280;52276;48.906;2.384;2023-09-30T00:33:44;88103.997802734;;;19.4;44.4
65606;BME280;52276;48.906;2.384;2023-09-30T00:34:44;88103.997802734;;;19.4;44.4
65606;BME280;52276;48.906;2.384;2023-09-30T00:35:44;88103.997802734;;;19.4;44.3
65606;BME280;52276;48.906;2.384;2023-09-30T00:36:44;88103.997802734;;;19.4;44.4
65606;BME280;52276;48.906;2.384;2023-09-30T00:37:44;88103.997802734;;;19.4;44.4
65606;BME280;52276;48.906;2.384;2023-09-30T00:38:44;88103.997802734;;;19.4;44.4
65606;BME280;52276;48.906;2.384;2023-09-30T00:39:44;88103.997802734;;;19.4;44.5
65606;BME280;52276;48.906;2.384;2023-09-30T00:40:48;88103.997802734;;;19.4;44.5
65606;BME280;52276;48.906;2.384;2023-09-30T00:41:44;88103.997802734;;;19.4;44.5
65606;BME280;52276;48.906;2.384;2023-09-30T00:42:44;88103.997802734;;;19.4;44.6
65606;BME280;52276;48.906;2.384;2023-09-30T00:43:45;88103.997802734;;;19.3;44.6
65606;BME280;52276;48.906;2.384;2023-09-30T00:44:44;88103.997802734;;;19.4;44.6
65606;BME280;52276;48.906;2.384;2023-09-30T00:45:44;88103.997802734;;;19.3;44.6
65606;BME280;52276;48.906;2.384;2023-09-30T00:46:44;88103.997802734;;;19.3;44.7
65606;BME280;52276;48.906;2.384;2023-09-30T00:47:44;88103.997802734;;;19.3;44.6
65606;BME280;52276;48.906;2.384;2023-09-30T00:48:44;88103.997802734;;;19.3;44.7
65606;BME280;52276;48.906;2.384;2023-09-30T00:49:44;88103.997802734;;;19.3;44.6
65606;BME280;52276;48.906;2.384;2023-09-30T00:50:44;88103.997802734;;;19.3;44.6
65606;BME280;52276;48.906;2.384;2023-09-30T00:51:44;88103.997802734;;;19.3;44.6
65606;BME280;52276;48.906;2.384;2023-09-30T00:52:44;88103.997802734;;;19.3;44.7
65606;BME280;52276;48.906;2.384;2023-09-30T00:53:44;88103.997802734;;;19.3;44.6
65606;BME280;52276;48.906;2.384;2023-09-30T00:54:44;88103.997802734;;;19.3;44.6
65606;BME280;52276;48.906;2.384;2023-09-30T00:55:44;88103.997802734;;;19.3;44.6
65606;BME280;52276;48.906;2.384;2023-09-30T00:56:44;88103.997802734;;;19.3;44.6
65606;BME280;52276;48.906;2.384;2023-09-30T00:57:44;88103.997802734;;;19.2;44.5
65606;BME280;52276;48.906;2.384;2023-09-30T00:58:44;88103.997802734;;;19.2;44.5
65606;BME280;52276;48.906;2.384;2023-09-30T00:59:44;88103.997802734;;;19.2;44.5
65606;BME280;52276;48.906;2.384;2023-09-30T01:00:44;88103.997802734;;;19.2;44.5
65606;BME280;52276;48.906;2.384;2023-09-30T01:01:44;88103.997802734;;;19.2;44.6
65606;BME280;52276;48.906;2.384;2023-09-30T01:02:44;88103.997802734;;;19.2;44.6
65606;BME280;52276;48.906;2.384;2023-09-30T01:03:44;88103.997802734;;;19.2;44.7
65606;BME280;52276;48.906;2.384;2023-09-30T01:04:44;88103.997802734;;;19.2;44.7
65606;BME280;52276;48.906;2.384;2023-09-30T01:05:44;88103.997802734;;;19.2;44.8
65606;BME280;52276;48.906;2.384;2023-09-30T01:06:44;88103.997802734;;;19.2;44.9
65606;BME280;52276;48.906;2.384;2023-09-30T01:07:44;88103.997802734;;;19.1;44.9
65606;BME280;52276;48.906;2.384;2023-09-30T01:08:44;88103.997802734;;;19.1;44.9
65606;BME280;52276;48.906;2.384;2023-09-30T01:09:44;88103.997802734;;;19.1;45
65606;BME280;52276;48.906;2.384;2023-09-30T01:10:44;88103.997802734;;;19.1;44.9
65606;BME280;52276;48.906;2.384;2023-09-30T01:11:44;88103.997802734;;;19.1;45
65606;BME280;52276;48.906;2.384;2023-09-30T01:12:44;88103.997802734;;;19.1;45.1
65606;BME280;52276;48.906;2.384;2023-09-30T01:13:44;88103.997802734;;;19.1;45.1
65606;BME280;52276;48.906;2.384;2023-09-30T01:14:44;88103.997802734;;;19.1;45.1
65606;BME280;52276;48.906;2.384;2023-09-30T01:15:44;88103.997802734;;;19.1;45.2
65606;BME280;52276;48.906;2.384;2023-09-30T01:16:44;88103.997802734;;;19;45
65606;BME280;52276;48.906;2.384;2023-09-30T01:17:44;88103.997802734;;;19.1;45.1
65606;BME280;52276;48.906;2.384;2023-09-30T01:18:44;88103.997802734;;;19.1;45.2
65606;BME280;52276;48.906;2.384;2023-09-30T01:19:44;88103.997802734;;;19;45.2
65606;BME280;52276;48.906;2.384;2023-09-30T01:20:44;88103.997802734;;;19.1;45.2
65606;BME280;52276;48.906;2.384;2023-09-30T01:21:44;88103.997802734;;;19;45.1
65606;BME280;52276;48.906;2.384;2023-09-30T01:22:44;88103.997802734;;;19;45.1
65606;BME280;52276;48.906;2.384;2023-09-30T01:23:44;88103.997802734;;;19;45.1
65606;BME280;52276;48.906;2.384;2023-09-30T01:24:44;88103.997802734;;;19;45.1
65606;BME280;52276;48.906;2.384;2023-09-30T01:25:44;88103.997802734;;;19;45.2
65606;BME280;52276;48.906;2.384;2023-09-30T01:26:44;88103.997802734;;;19;45.2
65606;BME280;52276;48.906;2.384;2023-09-30T01:27:44;88103.997802734;;;19;45.2
65606;BME280;52276;48.906;2.384;2023-09-30T01:28:44;88103.997802734;;;18.9;45.2
65606;BME280;52276;48.906;2.384;2023-09-30T01:29:44;88103.997802734;;;19;45.2
65606;BME280;52276;48.906;2.384;2023-09-30T01:30:44;88103.997802734;;;18.9;45.3
65606;BME280;52276;48.906;2.384;2023-09-30T01:31:44;88103.997802734;;;18.9;45.3
65606;BME280;52276;48.906;2.384;2023-09-30T01:32:44;88103.997802734;;;18.9;45.4
65606;BME280;52276;48.906;2.384;2023-09-30T01:33:44;88103.997802734;;;18.9;45.4
65606;BME280;52276;48.906;2.384;2023-09-30T01:34:44;88103.997802734;;;18.9;45.5
65606;BME280;52276;48.906;2.384;2023-09-30T01:35:44;88103.997802734;;;18.9;45.6
65606;BME280;52276;48.906;2.384;2023-09-30T01:36:44;88103.997802734;;;18.9;45.5
65606;BME280;52276;48.906;2.384;2023-09-30T01:37:44;88103.997802734;;;18.9;45.6
65606;BME280;52276;48.906;2.384;2023-09-30T01:38:44;88103.997802734;;;18.9;45.6
65606;BME280;52276;48.906;2.384;2023-09-30T01:39:44;88103.997802734;;;18.9;45.7
65606;BME280;52276;48.906;2.384;2023-09-30T01:40:44;88103.997802734;;;18.9;45.7
65606;BME280;52276;48.906;2.384;2023-09-30T01:41:44;88103.997802734;;;18.9;46
65606;BME280;52276;48.906;2.384;2023-09-30T01:42:44;88103.997802734;;;18.8;45.7
65606;BME280;52276;48.906;2.384;2023-09-30T01:43:44;88103.997802734;;;18.8;45.8
65606;BME280;52276;48.906;2.384;2023-09-30T01:44:44;88103.997802734;;;18.8;45.8
65606;BME280;52276;48.906;2.384;2023-09-30T01:45:44;88103.997802734;;;18.8;46
65606;BME280;52276;48.906;2.384;2023-09-30T01:46:44;88103.997802734;;;18.8;46
65606;BME280;52276;48.906;2.384;2023-09-30T01:47:44;88103.997802734;;;18.8;46
65606;BME280;52276;48.906;2.384;2023-09-30T01:48:44;88103.997802734;;;18.8;46.1
65606;BME280;52276;48.906;2.384;2023-09-30T01:49:44;88103.997802734;;;18.8;46.1
65606;BME280;52276;48.906;2.384;2023-09-30T01:50:44;88103.997802734;;;18.8;46.1
65606;BME280;52276;48.906;2.384;2023-09-30T01:51:44;88103.997802734;;;18.7;46.1
65606;BME280;52276;48.906;2.384;2023-09-30T01:52:44;88103.997802734;;;18.7;46.1
65606;BME280;52276;48.906;2.384;2023-09-30T01:53:44;88103.997802734;;;18.8;46.2
65606;BME280;52276;48.906;2.384;2023-09-30T01:54:44;88103.997802734;;;18.7;46.1
65606;BME280;52276;48.906;2.384;2023-09-30T01:55:44;88103.997802734;;;18.7;46.2
65606;BME280;52276;48.906;2.384;2023-09-30T01:56:44;88103.997802734;;;18.7;46.2
65606;BME280;52276;48.906;2.384;2023-09-30T01:57:44;88103.997802734;;;18.7;46.2
65606;BME280;52276;48.906;2.384;2023-09-30T01:58:44;88103.997802734;;;18.7;46.2
65606;BME280;52276;48.906;2.384;2023-09-30T01:59:44;88103.997802734;;;18.7;46.2
65606;BME280;52276;48.906;2.384;2023-09-30T02:00:44;88103.997802734;;;18.7;45.2
65606;BME280;52276;48.906;2.384;2023-09-30T02:01:44;88103.997802734;;;18.7;46.3
65606;BME280;52276;48.906;2.384;2023-09-30T02:02:44;88103.997802734;;;18.7;46.3
65606;BME280;52276;48.906;2.384;2023-09-30T02:03:44;88103.997802734;;;18.7;46.4
65606;BME280;52276;48.906;2.384;2023-09-30T02:04:44;88103.997802734;;;18.6;46.3
65606;BME280;52276;48.906;2.384;2023-09-30T02:05:44;88103.997802734;;;18.6;46.1
65606;BME280;52276;48.906;2.384;2023-09-30T02:06:44;88103.997802734;;;18.6;46.4
65606;BME280;52276;48.906;2.384;2023-09-30T02:07:44;88103.997802734;;;18.7;46.5
65606;BME280;52276;48.906;2.384;2023-09-30T02:08:44;88103.997802734;;;18.6;46.4
65606;BME280;52276;48.906;2.384;2023-09-30T02:09:44;88103.997802734;;;18.6;46.4
65606;BME280;52276;48.906;2.384;2023-09-30T02:10:44;88103.997802734;;;18.6;46.5
65606;BME280;52276;48.906;2.384;2023-09-30T02:11:44;88103.997802734;;;18.6;46.5
65606;BME280;52276;48.906;2.384;2023-09-30T02:12:44;88103.997802734;;;18.6;46.5
65606;BME280;52276;48.906;2.384;2023-09-30T02:13:44;88103.997802734;;;18.6;46.5
65606;BME280;52276;48.906;2.384;2023-09-30T02:14:44;88103.997802734;;;18.6;46.6
65606;BME280;52276;48.906;2.384;2023-09-30T02:15:44;88103.997802734;;;18.6;46.5
65606;BME280;52276;48.906;2.384;2023-09-30T02:16:44;88103.997802734;;;18.6;46.6
65606;BME280;52276;48.906;2.384;2023-09-30T02:17:44;88103.997802734;;;18.6;46.5
65606;BME280;52276;48.906;2.384;2023-09-30T02:18:44;88103.997802734;;;18.6;46.7
65606;BME280;52276;48.906;2.384;2023-09-30T02:19:44;88103.997802734;;;18.6;46.7
65606;BME280;52276;48.906;2.384;2023-09-30T02:20:44;88103.997802734;;;18.5;46.6
65606;BME280;52276;48.906;2.384;2023-09-30T02:21:44;88103.997802734;;;18.5;46.6
65606;BME280;52276;48.906;2.384;2023-09-30T02:22:44;88103.997802734;;;18.5;46.6
65606;BME280;52276;48.906;2.384;2023-09-30T02:23:44;88103.997802734;;;18.5;46.7
65606;BME280;52276;48.906;2.384;2023-09-30T02:24:44;88103.997802734;;;18.5;46.7
65606;BME280;52276;48.906;2.384;2023-09-30T02:25:44;88103.997802734;;;18.5;46.8
65606;BME280;52276;48.906;2.384;2023-09-30T02:26:44;88103.997802734;;;18.5;46.8
65606;BME280;52276;48.906;2.384;2023-09-30T02:27:44;88103.997802734;;;18.5;46.9
65606;BME280;52276;48.906;2.384;2023-09-30T02:28:44;88103.997802734;;;18.5;46.8
65606;BME280;52276;48.906;2.384;2023-09-30T02:29:44;88103.997802734;;;18.5;46.9
65606;BME280;52276;48.906;2.384;2023-09-30T02:30:44;88103.997802734;;;18.4;46.8
65606;BME280;52276;48.906;2.384;2023-09-30T02:31:44;88103.997802734;;;18.4;46.9
65606;BME280;52276;48.906;2.384;2023-09-30T02:32:44;88103.997802734;;;18.4;46.9
65606;BME280;52276;48.906;2.384;2023-09-30T02:33:44;88103.997802734;;;18.4;47
65606;BME280;52276;48.906;2.384;2023-09-30T02:34:44;88103.997802734;;;18.4;46.9
65606;BME280;52276;48.906;2.384;2023-09-30T02:35:44;88103.997802734;;;18.4;46.9
65606;BME280;52276;48.906;2.384;2023-09-30T02:36:44;88103.997802734;;;18.4;47
65606;BME280;52276;48.906;2.384;2023-09-30T02:37:44;88103.997802734;;;18.4;47
65606;BME280;52276;48.906;2.384;2023-09-30T02:38:44;88103.997802734;;;18.4;47
65606;BME280;52276;48.906;2.384;2023-09-30T02:39:44;88103.997802734;;;18.4;47
65606;BME280;52276;48.906;2.384;2023-09-30T02:40:44;88103.997802734;;;18.4;47
65606;BME280;52276;48.906;2.384;2023-09-30T02:41:44;88103.997802734;;;18.4;47
65606;BME280;52276;48.906;2.384;2023-09-30T02:42:44;88103.997802734;;;18.4;45.7
65606;BME280;52276;48.906;2.384;2023-09-30T02:43:44;88103.997802734;;;18.4;47
65606;BME280;52276;48.906;2.384;2023-09-30T02:44:44;88103.997802734;;;18.3;47
65606;BME280;52276;48.906;2.384;2023-09-30T02:45:44;88103.997802734;;;18.3;47
65606;BME280;52276;48.906;2.384;2023-09-30T02:46:44;88103.997802734;;;18.3;47
65606;BME280;52276;48.906;2.384;2023-09-30T02:47:44;88103.997802734;;;18.3;47
65606;BME280;52276;48.906;2.384;2023-09-30T02:48:44;88103.997802734;;;18.3;47
65606;BME280;52276;48.906;2.384;2023-09-30T02:49:44;88103.997802734;;;18.3;47.1
65606;BME280;52276;48.906;2.384;2023-09-30T02:50:44;88103.997802734;;;18.3;47.1
65606;BME280;52276;48.906;2.384;2023-09-30T02:51:44;88103.997802734;;;18.3;47.2
65606;BME280;52276;48.906;2.384;2023-09-30T02:52:44;88103.997802734;;;18.3;47.2
65606;BME280;52276;48.906;2.384;2023-09-30T02:53:44;88103.997802734;;;18.3;47.3
65606;BME280;52276;48.906;2.384;2023-09-30T02:54:44;88103.997802734;;;18.3;47.2
65606;BME280;52276;48.906;2.384;2023-09-30T02:55:44;88103.997802734;;;18.2;47.2
65606;BME280;52276;48.906;2.384;2023-09-30T02:56:44;88103.997802734;;;18.2;47.3
65606;BME280;52276;48.906;2.384;2023-09-30T02:57:44;88103.997802734;;;18.2;47.3
65606;BME280;52276;48.906;2.384;2023-09-30T02:58:45;88103.997802734;;;18.2;47.3
65606;BME280;52276;48.906;2.384;2023-09-30T02:59:44;88103.997802734;;;18.2;47.3
65606;BME280;52276;48.906;2.384;2023-09-30T03:00:47;88103.997802734;;;18.3;46.1
65606;BME280;52276;48.906;2.384;2023-09-30T03:01:44;88103.997802734;;;18.2;47.4
65606;BME280;52276;48.906;2.384;2023-09-30T03:02:44;88103.997802734;;;18.2;47.4
65606;BME280;52276;48.906;2.384;2023-09-30T03:03:44;88103.997802734;;;18.2;47.4
65606;BME280;52276;48.906;2.384;2023-09-30T03:04:44;88103.997802734;;;18.2;47.3
65606;BME280;52276;48.906;2.384;2023-09-30T03:05:44;88103.997802734;;;18.2;47.3
65606;BME280;52276;48.906;2.384;2023-09-30T03:06:44;88103.997802734;;;18.3;47.2
65606;BME280;52276;48.906;2.384;2023-09-30T03:07:44;88103.997802734;;;18.2;47.1
65606;BME280;52276;48.906;2.384;2023-09-30T03:08:44;88103.997802734;;;18.2;47.1
65606;BME280;52276;48.906;2.384;2023-09-30T03:09:44;88103.997802734;;;18.2;47.2
65606;BME280;52276;48.906;2.384;2023-09-30T03:10:44;88103.997802734;;;18.2;47.1
65606;BME280;52276;48.906;2.384;2023-09-30T03:11:45;88103.997802734;;;18.2;47.1
65606;BME280;52276;48.906;2.384;2023-09-30T03:12:44;88103.997802734;;;18.2;46.8
65606;BME280;52276;48.906;2.384;2023-09-30T03:13:44;88103.997802734;;;18.2;47.1
65606;BME280;52276;48.906;2.384;2023-09-30T03:14:44;88103.997802734;;;18.2;47.1
65606;BME280;52276;48.906;2.384;2023-09-30T03:15:44;88103.997802734;;;18.2;47.1
65606;BME280;52276;48.906;2.384;2023-09-30T03:16:44;88103.997802734;;;18.2;47.1
65606;BME280;52276;48.906;2.384;2023-09-30T03:17:44;88103.997802734;;;18.2;47.1
65606;BME280;52276;48.906;2.384;2023-09-30T03:18:44;88103.997802734;;;18.2;47.1
65606;BME280;52276;48.906;2.384;2023-09-30T03:19:44;88103.997802734;;;18.2;47.1
65606;BME280;52276;48.906;2.384;2023-09-30T03:20:44;88103.997802734;;;18.2;47.1
65606;BME280;52276;48.906;2.384;2023-09-30T03:21:44;88103.997802734;;;18.2;47.1
65606;BME280;52276;48.906;2.384;2023-09-30T03:22:44;88103.997802734;;;18.2;47.1
65606;BME280;52276;48.906;2.384;2023-09-30T03:23:44;88103.997802734;;;18.2;47.1
65606;BME280;52276;48.906;2.384;2023-09-30T03:24:44;88103.997802734;;;18.2;47.1
65606;BME280;52276;48.906;2.384;2023-09-30T03:25:44;88103.997802734;;;18.2;47
65606;BME280;52276;48.906;2.384;2023-09-30T03:26:44;88103.997802734;;;18.1;44.9
65606;BME280;52276;48.906;2.384;2023-09-30T03:27:44;88103.997802734;;;18.1;47
65606;BME280;52276;48.906;2.384;2023-09-30T03:28:44;88103.997802734;;;18.1;47
65606;BME280;52276;48.906;2.384;2023-09-30T03:29:44;88103.997802734;;;18.1;47
65606;BME280;52276;48.906;2.384;2023-09-30T03:30:44;88103.997802734;;;18.1;47.1
65606;BME280;52276;48.906;2.384;2023-09-30T03:31:44;88103.997802734;;;18.1;47.2
65606;BME280;52276;48.906;2.384;2023-09-30T03:32:44;88103.997802734;;;18.1;47.2
65606;BME280;52276;48.906;2.384;2023-09-30T03:33:44;88103.997802734;;;18.1;47.3
65606;BME280;52276;48.906;2.384;2023-09-30T03:34:44;88103.997802734;;;18.1;47.3
65606;BME280;52276;48.906;2.384;2023-09-30T03:35:44;88103.997802734;;;18.1;47.3
65606;BME280;52276;48.906;2.384;2023-09-30T03:36:44;88103.997802734;;;18.1;47.3
65606;BME280;52276;48.906;2.384;2023-09-30T03:37:44;88103.997802734;;;18.1;47.3
65606;BME280;52276;48.906;2.384;2023-09-30T03:38:44;88103.997802734;;;18;47.2
65606;BME280;52276;48.906;2.384;2023-09-30T03:39:44;88103.997802734;;;18.1;47.3
65606;BME280;52276;48.906;2.384;2023-09-30T03:40:44;88103.997802734;;;18;47.3
65606;BME280;52276;48.906;2.384;2023-09-30T03:41:44;88103.997802734;;;18;47.4
65606;BME280;52276;48.906;2.384;2023-09-30T03:42:46;88103.997802734;;;18;47.4
65606;BME280;52276;48.906;2.384;2023-09-30T03:43:44;88103.997802734;;;18.1;47.5
65606;BME280;52276;48.906;2.384;2023-09-30T03:44:44;88103.997802734;;;18;47.4
65606;BME280;52276;48.906;2.384;2023-09-30T03:45:44;88103.997802734;;;18;47.4
65606;BME280;52276;48.906;2.384;2023-09-30T03:46:44;88103.997802734;;;18;47.3
65606;BME280;52276;48.906;2.384;2023-09-30T03:47:44;88103.997802734;;;18;47.4
65606;BME280;52276;48.906;2.384;2023-09-30T03:48:44;88103.997802734;;;18;47.4
65606;BME280;52276;48.906;2.384;2023-09-30T03:49:44;88103.997802734;;;18;47.4
65606;BME280;52276;48.906;2.384;2023-09-30T03:50:44;88103.997802734;;;18;47.5
65606;BME280;52276;48.906;2.384;2023-09-30T03:51:44;88103.997802734;;;18;47.4
65606;BME280;52276;48.906;2.384;2023-09-30T03:52:44;88103.997802734;;;18;47.5
65606;BME280;52276;48.906;2.384;2023-09-30T03:53:44;88103.997802734;;;18;47.5
65606;BME280;52276;48.906;2.384;2023-09-30T03:54:44;88103.997802734;;;18;45.5
65606;BME280;52276;48.906;2.384;2023-09-30T03:55:44;88103.997802734;;;18;47.5
65606;BME280;52276;48.906;2.384;2023-09-30T03:56:44;88103.997802734;;;18;47.6
65606;BME280;52276;48.906;2.384;2023-09-30T03:57:44;88103.997802734;;;18;47.5
65606;BME280;52276;48.906;2.384;2023-09-30T03:58:44;88103.997802734;;;18;47.5
65606;BME280;52276;48.906;2.384;2023-09-30T03:59:44;88103.997802734;;;18;47.5
65606;BME280;52276;48.906;2.384;2023-09-30T04:00:44;88103.997802734;;;18;47.6
65606;BME280;52276;48.906;2.384;2023-09-30T04:01:44;88103.997802734;;;18;47.7
65606;BME280;52276;48.906;2.384;2023-09-30T04:02:44;88103.997802734;;;17.9;47.7
65606;BME280;52276;48.906;2.384;2023-09-30T04:03:44;88103.997802734;;;18;47.8
65606;BME280;52276;48.906;2.384;2023-09-30T04:04:44;88103.997802734;;;17.9;47.8
65606;BME280;52276;48.906;2.384;2023-09-30T04:05:44;88103.997802734;;;17.9;47.8
65606;BME280;52276;48.906;2.384;2023-09-30T04:06:44;88103.997802734;;;17.9;47.8
65606;BME280;52276;48.906;2.384;2023-09-30T04:07:44;88103.997802734;;;17.9;47.9
65606;BME280;52276;48.906;2.384;2023-09-30T04:08:44;88103.997802734;;;17.9;47.9
65606;BME280;52276;48.906;2.384;2023-09-30T04:09:44;88103.997802734;;;17.9;48
65606;BME280;52276;48.906;2.384;2023-09-30T04:10:44;88103.997802734;;;17.9;48
65606;BME280;52276;48.906;2.384;2023-09-30T04:11:44;88103.997802734;;;17.9;48.1
65606;BME280;52276;48.906;2.384;2023-09-30T04:12:44;88103.997802734;;;17.9;48
65606;BME280;52276;48.906;2.384;2023-09-30T04:13:44;88103.997802734;;;17.9;48.1
65606;BME280;52276;48.906;2.384;2023-09-30T04:14:44;88103.997802734;;;17.9;48.1
65606;BME280;52276;48.906;2.384;2023-09-30T04:15:44;88103.997802734;;;17.8;48.1
65606;BME280;52276;48.906;2.384;2023-09-30T04:16:44;88103.997802734;;;17.9;48.2
65606;BME280;52276;48.906;2.384;2023-09-30T04:17:44;88103.997802734;;;17.8;48.1
65606;BME280;52276;48.906;2.384;2023-09-30T04:18:44;88103.997802734;;;17.8;48
65606;BME280;52276;48.906;2.384;2023-09-30T04:19:44;88103.997802734;;;17.8;48
65606;BME280;52276;48.906;2.384;2023-09-30T04:20:44;88103.997802734;;;17.8;48.2
65606;BME280;52276;48.906;2.384;2023-09-30T04:21:44;88103.997802734;;;17.8;48.2
65606;BME280;52276;48.906;2.384;2023-09-30T04:22:44;88103.997802734;;;17.8;48.2
65606;BME280;52276;48.906;2.384;2023-09-30T04:23:44;88103.997802734;;;17.8;48.3
65606;BME280;52276;48.906;2.384;2023-09-30T04:24:44;88103.997802734;;;17.8;48.3
65606;BME280;52276;48.906;2.384;2023-09-30T04:25:44;88103.997802734;;;17.8;48.2
65606;BME280;52276;48.906;2.384;2023-09-30T04:26:44;88103.997802734;;;17.8;48.3
65606;BME280;52276;48.906;2.384;2023-09-30T04:27:44;88103.997802734;;;17.8;48.3
65606;BME280;52276;48.906;2.384;2023-09-30T04:28:44;88103.997802734;;;17.8;48.3
65606;BME280;52276;48.906;2.384;2023-09-30T04:29:44;88103.997802734;;;17.8;48.3
65606;BME280;52276;48.906;2.384;2023-09-30T04:30:44;88103.997802734;;;17.8;48.4
65606;BME280;52276;48.906;2.384;2023-09-30T04:31:44;88103.997802734;;;17.8;47
65606;BME280;52276;48.906;2.384;2023-09-30T04:32:44;88103.997802734;;;17.8;48.4
65606;BME280;52276;48.906;2.384;2023-09-30T04:33:44;88103.997802734;;;17.7;48.3
65606;BME280;52276;48.906;2.384;2023-09-30T04:34:44;88103.997802734;;;17.7;48.4
65606;BME280;52276;48.906;2.384;2023-09-30T04:35:44;88103.997802734;;;17.7;48.4
65606;BME280;52276;48.906;2.384;2023-09-30T04:36:44;88103.997802734;;;17.7;48.5
65606;BME280;52276;48.906;2.384;2023-09-30T04:37:44;88103.997802734;;;17.7;48.5
65606;BME280;52276;48.906;2.384;2023-09-30T04:38:44;88103.997802734;;;17.7;48.4
65606;BME280;52276;48.906;2.384;2023-09-30T04:39:44;88103.997802734;;;17.7;48.5
65606;BME280;52276;48.906;2.384;2023-09-30T04:40:44;88103.997802734;;;17.7;48.5
65606;BME280;52276;48.906;2.384;2023-09-30T04:41:44;88103.997802734;;;17.7;46.5
65606;BME280;52276;48.906;2.384;2023-09-30T04:42:44;88103.997802734;;;17.7;48.6
65606;BME280;52276;48.906;2.384;2023-09-30T04:43:44;88103.997802734;;;17.7;48.6
65606;BME280;52276;48.906;2.384;2023-09-30T04:44:44;88103.997802734;;;17.7;48.7
65606;BME280;52276;48.906;2.384;2023-09-30T04:45:44;88103.997802734;;;17.7;48.6
65606;BME280;52276;48.906;2.384;2023-09-30T04:46:44;88103.997802734;;;17.7;48.6
65606;BME280;52276;48.906;2.384;2023-09-30T04:47:44;88103.997802734;;;17.7;48.7
65606;BME280;52276;48.906;2.384;2023-09-30T04:48:44;88103.997802734;;;17.7;48.7
65606;BME280;52276;48.906;2.384;2023-09-30T04:49:44;88103.997802734;;;17.7;48.7
65606;BME280;52276;48.906;2.384;2023-09-30T04:50:44;88103.997802734;;;17.7;48.7
65606;BME280;52276;48.906;2.384;2023-09-30T04:51:44;88103.997802734;;;17.7;48.7
65606;BME280;52276;48.906;2.384;2023-09-30T04:52:44;88103.997802734;;;17.6;48.6
65606;BME280;52276;48.906;2.384;2023-09-30T04:53:44;88103.997802734;;;17.7;48.6
65606;BME280;52276;48.906;2.384;2023-09-30T04:54:44;88103.997802734;;;17.7;48.6
65606;BME280;52276;48.906;2.384;2023-09-30T04:55:44;88103.997802734;;;17.7;48.5
65606;BME280;52276;48.906;2.384;2023-09-30T04:56:44;88103.997802734;;;17.7;48.5
65606;BME280;52276;48.906;2.384;2023-09-30T04:57:44;88103.997802734;;;17.7;48.4
65606;BME280;52276;48.906;2.384;2023-09-30T04:58:44;88103.997802734;;;17.7;48.4
65606;BME280;52276;48.906;2.384;2023-09-30T04:59:44;88103.997802734;;;17.7;48.4